createdAt,value
2019-04-23T00:01:34.927Z,13.2
2019-04-23T00:06:13.258Z,13.1
2019-04-23T00:08:25.557Z,13.2
2019-04-23T00:10:42.276Z,13.1
2019-04-23T00:12:58.223Z,13.1
2019-04-23T00:14:19.149Z,13.1
2019-04-23T00:15:16.627Z,13.1
2019-04-23T00:17:41.775Z,13
2019-04-23T00:18:49.162Z,13.1
2019-04-23T00:20:01.785Z,13
2019-04-23T00:21:13.026Z,13
2019-04-23T00:23:34.487Z,12.9
2019-04-23T00:25:52.406Z,13
2019-04-23T00:27:05.585Z,12.9
2019-04-23T00:28:40.684Z,12.9
2019-04-23T00:30:36.033Z,13
2019-04-23T00:31:49.365Z,12.9
2019-04-23T00:33:56.446Z,12.9
2019-04-23T00:35:05.466Z,12.9
2019-04-23T00:37:30.892Z,12.9
2019-04-23T00:38:49.372Z,12.9
2019-04-23T00:42:06.461Z,12.8
2019-04-23T00:44:22.582Z,12.8
2019-04-23T00:46:39.847Z,12.8
2019-04-23T00:47:49.424Z,12.8
2019-04-23T00:50:11.971Z,12.7
2019-04-23T00:51:08.987Z,12.7
2019-04-23T00:53:32.299Z,12.7
2019-04-23T00:55:55.472Z,12.8
2019-04-23T00:58:20.989Z,12.8
2019-04-23T01:00:41.047Z,12.7
2019-04-23T01:02:52.556Z,12.6
2019-04-23T01:03:57.711Z,12.7
2019-04-23T01:05:10.112Z,12.7
2019-04-23T01:07:31.415Z,12.7
2019-04-23T01:09:52.255Z,12.7
2019-04-23T01:12:12.324Z,12.6
2019-04-23T01:14:25.748Z,12.5
2019-04-23T01:15:38.598Z,12.6
2019-04-23T01:16:42.325Z,12.6
2019-04-23T01:18:57.595Z,12.5
2019-04-23T01:20:13.941Z,12.5
2019-04-23T01:21:03.405Z,12.5
2019-04-23T01:22:12.633Z,12.5
2019-04-23T01:23:28.394Z,12.5
2019-04-23T01:24:34.820Z,12.5
2019-04-23T01:25:52.123Z,12.5
2019-04-23T01:27:32.096Z,12.5
2019-04-23T01:28:47.510Z,12.4
2019-04-23T01:31:51.639Z,12.4
2019-04-23T01:34:12.822Z,12.4
2019-04-23T01:35:32.129Z,12.4
2019-04-23T01:38:45.311Z,12.3
2019-04-23T01:39:57.156Z,12.3
2019-04-23T01:42:11.374Z,12.2
2019-04-23T01:43:22.390Z,12.2
2019-04-23T01:45:34.038Z,12.2
2019-04-23T01:47:00.476Z,12.2
2019-04-23T01:49:11.929Z,12.2
2019-04-23T01:53:49.385Z,12.1
2019-04-23T01:56:04.613Z,12.2
2019-04-23T01:57:22.659Z,12
2019-04-23T01:59:10.629Z,12.1
2019-04-23T02:01:57.800Z,12
2019-04-23T02:03:07.215Z,12.1
2019-04-23T02:04:34.382Z,12
2019-04-23T02:05:27.118Z,12
2019-04-23T02:07:05.394Z,12
2019-04-23T02:08:58.064Z,12
2019-04-23T02:11:00.023Z,12
2019-04-23T02:13:30.298Z,11.9
2019-04-23T02:15:40.726Z,11.8
2019-04-23T02:18:11.317Z,11.7
2019-04-23T02:20:20.662Z,11.8
2019-04-23T02:21:37.795Z,11.7
2019-04-23T02:22:49.692Z,11.7
2019-04-23T02:25:13.042Z,11.8
2019-04-23T02:27:27.643Z,11.8
2019-04-23T02:29:43.307Z,11.8
2019-04-23T02:32:01.189Z,11.7
2019-04-23T02:34:20.664Z,11.7
2019-04-23T02:40:03.673Z,11.6
2019-04-23T02:41:26.374Z,11.6
2019-04-23T02:43:31.975Z,11.6
2019-04-23T02:45:56.144Z,11.7
2019-04-23T02:47:16.720Z,11.6
2019-04-23T02:48:52.398Z,11.6
2019-04-23T02:51:50.619Z,11.5
2019-04-23T02:54:15.342Z,11.6
2019-04-23T02:55:07.784Z,11.4
2019-04-23T02:57:05.402Z,11.5
2019-04-23T02:58:52.015Z,11.5
2019-04-23T03:03:13.261Z,11.5
2019-04-23T03:05:45.015Z,11.5
2019-04-23T03:07:13.777Z,11.4
2019-04-23T03:10:20.234Z,11.3
2019-04-23T03:11:56.507Z,11.4
2019-04-23T03:13:53.311Z,11.3
2019-04-23T03:15:19.288Z,11.2
2019-04-23T03:17:09.518Z,11.3
2019-04-23T03:18:38.805Z,11.2
2019-04-23T03:23:09.767Z,11.2
2019-04-23T03:24:43.137Z,11.3
2019-04-23T03:28:42.597Z,11.2
2019-04-23T03:37:55.410Z,11.1
2019-04-23T03:39:01.386Z,11.2
2019-04-23T03:41:39.009Z,11.2
2019-04-23T03:46:11.449Z,11.1
2019-04-23T03:47:23.863Z,11.1
2019-04-23T03:48:50.672Z,11.1
2019-04-23T03:51:50.997Z,11.1
2019-04-23T03:53:24.053Z,11.1
2019-04-23T03:57:29.833Z,11.1
2019-04-23T04:01:21.289Z,11.1
2019-04-23T04:02:39.631Z,11
2019-04-23T04:07:09.584Z,11.1
2019-04-23T04:10:35.070Z,11.2
2019-04-23T04:11:22.696Z,11.2
2019-04-23T04:14:53.076Z,11.3
2019-04-23T04:18:43.904Z,11.2
2019-04-23T04:21:58.191Z,11.5
2019-04-23T04:24:21.241Z,11.5
2019-04-23T04:26:50.716Z,11.3
2019-04-23T04:31:02.574Z,11.4
2019-04-23T04:32:07.677Z,11.6
2019-04-23T04:37:16.283Z,11.6
2019-04-23T04:39:14.851Z,11.8
2019-04-23T04:40:36.261Z,11.5
2019-04-23T04:42:32.593Z,11.4
2019-04-23T04:45:20.018Z,11.4
2019-04-23T04:46:30.160Z,11.2
2019-04-23T04:47:47.773Z,11.7
2019-04-23T04:49:55.539Z,11.5
2019-04-23T04:52:21.609Z,11.4
2019-04-23T04:55:26.027Z,12
2019-04-23T04:57:57.900Z,11.5
2019-04-23T04:59:08.388Z,11.5
2019-04-23T05:01:22.163Z,11.8
2019-04-23T05:02:52.350Z,12
2019-04-23T05:04:42.087Z,11.6
2019-04-23T05:08:12.716Z,12.6
2019-04-23T05:09:40.306Z,12.4
2019-04-23T05:13:11.046Z,11.8
2019-04-23T05:15:06.656Z,11.5
2019-04-23T05:16:32.974Z,11.7
2019-04-23T05:17:41.427Z,12.1
2019-04-23T05:19:12.394Z,12
2019-04-23T05:22:13.971Z,12.3
2019-04-23T05:23:42.435Z,12.4
2019-04-23T05:25:31.191Z,13.4
2019-04-23T05:26:37.114Z,12.3
2019-04-23T05:28:07.433Z,11.6
2019-04-23T05:29:10.888Z,11.7
2019-04-23T05:30:07.298Z,12.2
2019-04-23T05:31:18.507Z,13.1
2019-04-23T05:33:36.615Z,13.2
2019-04-23T05:36:05.858Z,12.6
2019-04-23T05:38:35.574Z,12.9
2019-04-23T05:39:33.635Z,12.1
2019-04-23T05:40:44.783Z,12.6
2019-04-23T05:42:57.597Z,12.5
2019-04-23T05:44:15.269Z,12.2
2019-04-23T05:45:07.804Z,12.8
2019-04-23T05:47:32.336Z,13
2019-04-23T05:48:37.166Z,12.5
2019-04-23T05:49:58.782Z,13.7
2019-04-23T05:52:05.828Z,12.3
2019-04-23T05:54:26.375Z,12.9
2019-04-23T05:55:47.385Z,12.4
2019-04-23T05:58:00.382Z,11.9
2019-04-23T06:00:23.445Z,12
2019-04-23T06:02:47.946Z,12.5
2019-04-23T06:06:10.095Z,13.4
2019-04-23T06:07:47.035Z,13.2
2019-04-23T06:09:30.189Z,12.5
2019-04-23T06:10:39.379Z,12.7
2019-04-23T06:12:18.578Z,12.7
2019-04-23T06:14:10.943Z,13.2
2019-04-23T06:16:40.982Z,12.9
2019-04-23T06:19:56.610Z,13.9
2019-04-23T06:21:15.128Z,13.6
2019-04-23T06:22:49.111Z,12.9
2019-04-23T06:24:40.698Z,13
2019-04-23T06:26:31.860Z,13.4
2019-04-23T06:28:12.545Z,12.8
2019-04-23T06:30:40.207Z,13.9
2019-04-23T06:32:37.024Z,12.7
2019-04-23T06:35:03.387Z,12.4
2019-04-23T06:36:18.474Z,12.4
2019-04-23T06:38:32.364Z,12.8
2019-04-23T06:40:53.746Z,13.1
2019-04-23T06:42:22.550Z,13
2019-04-23T06:44:44.822Z,12.7
2019-04-23T06:45:49.013Z,13
2019-04-23T06:46:56.605Z,13.2
2019-04-23T06:52:58.676Z,13.7
2019-04-23T06:54:17.856Z,13
2019-04-23T06:55:19.931Z,13.3
2019-04-23T06:57:53.965Z,14.5
2019-04-23T07:04:23.706Z,12.4
2019-04-23T07:06:34.594Z,13.3
2019-04-23T07:09:04.960Z,13.5
2019-04-23T07:10:03.418Z,13.8
2019-04-23T07:12:36.080Z,12.5
2019-04-23T07:14:55.224Z,13
2019-04-23T07:16:32.356Z,13.1
2019-04-23T07:18:03.745Z,13.1
2019-04-23T07:22:06.163Z,12.8
2019-04-23T07:24:41.745Z,13.5
2019-04-23T07:27:01.079Z,14
2019-04-23T07:28:25.875Z,14.6
2019-04-23T07:29:17.601Z,13.9
2019-04-23T07:30:49.318Z,13.1
2019-04-23T07:32:56.162Z,13
2019-04-23T07:35:06.934Z,13.2
2019-04-23T07:37:31.746Z,13.8
2019-04-23T07:39:56.882Z,13.7
2019-04-23T07:43:20.032Z,14.4
2019-04-23T07:44:28.012Z,14.3
2019-04-23T07:45:42.476Z,14.5
2019-04-23T07:46:52.485Z,14.5
2019-04-23T07:49:22.552Z,14.8
2019-04-23T07:50:30.767Z,15.4
2019-04-23T07:52:58.545Z,15.5
2019-04-23T07:54:22.324Z,15
2019-04-23T07:57:33.754Z,14
2019-04-23T07:59:53.239Z,15.3
2019-04-23T08:02:19.211Z,13.9
2019-04-23T08:06:00.418Z,13.4
2019-04-23T08:07:14.183Z,14.5
2019-04-23T08:11:44.121Z,15
2019-04-23T08:13:15.389Z,14.8
2019-04-23T08:15:06.948Z,14.8
2019-04-23T08:16:42.214Z,15.3
2019-04-23T08:19:24.190Z,14.4
2019-04-23T08:21:00.680Z,14.9
2019-04-23T08:22:39.099Z,14.4
2019-04-23T08:25:04.745Z,14.5
2019-04-23T08:26:19.203Z,14.6
2019-04-23T08:27:34.329Z,14.9
2019-04-23T08:29:27.495Z,15
2019-04-23T08:30:52.524Z,15.3
2019-04-23T08:33:10.752Z,15.4
2019-04-23T08:37:08.595Z,15
2019-04-23T08:38:35.657Z,16
2019-04-23T08:39:42.817Z,14.5
2019-04-23T08:40:42.655Z,15.6
2019-04-23T08:45:21.528Z,15.6
2019-04-23T08:49:50.414Z,15.9
2019-04-23T08:51:09.499Z,15.2
2019-04-23T08:53:35.282Z,16.1
2019-04-23T08:54:47.695Z,15.5
2019-04-23T08:57:02.054Z,15.2
2019-04-23T08:58:39.398Z,15.6
2019-04-23T09:00:45.371Z,15.7
2019-04-23T09:02:03.439Z,16.3
2019-04-23T09:04:16.513Z,17.5
2019-04-23T09:06:52.666Z,16.4
2019-04-23T09:08:49.369Z,16.2
2019-04-23T09:09:56.467Z,16.4
2019-04-23T09:11:29.704Z,15.7
2019-04-23T09:13:59.115Z,16.6
2019-04-23T09:16:57.420Z,16
2019-04-23T09:18:09.108Z,16.2
2019-04-23T09:20:26.038Z,16
2019-04-23T09:22:37.152Z,16.5
2019-04-23T09:25:02.463Z,16.5
2019-04-23T09:27:32.943Z,16.6
2019-04-23T09:33:38.964Z,15.9
2019-04-23T09:36:06.280Z,17.2
2019-04-23T09:37:34.503Z,16.5
2019-04-23T09:42:08.220Z,18.1
2019-04-23T09:44:47.031Z,17.5
2019-04-23T09:46:43.818Z,17.4
2019-04-23T09:47:56.605Z,18
2019-04-23T09:51:29.668Z,16.8
2019-04-23T09:52:44.458Z,16.6
2019-04-23T09:53:39.771Z,17.1
2019-04-23T09:56:13.948Z,17.5
2019-04-23T09:58:21.472Z,17.7
2019-04-23T09:59:42.844Z,17.3
2019-04-23T10:00:40.507Z,17.7
2019-04-23T10:02:26.608Z,17.2
2019-04-23T10:03:36.170Z,16.5
2019-04-23T10:04:51.700Z,16.3
2019-04-23T10:05:50.930Z,16.6
2019-04-23T10:11:45.067Z,16.9
2019-04-23T10:12:53.844Z,17.3
2019-04-23T10:14:03.008Z,17.6
2019-04-23T10:15:18.487Z,16.8
2019-04-23T10:16:30.160Z,16.9
2019-04-23T10:17:40.322Z,17
2019-04-23T10:18:50.981Z,16.4
2019-04-23T10:20:00.517Z,16.7
2019-04-23T10:21:09.291Z,16.7
2019-04-23T10:22:19.563Z,16.6
2019-04-23T10:23:39.061Z,17
2019-04-23T10:24:48.772Z,17
2019-04-23T10:25:58.275Z,17
2019-04-23T10:27:08.296Z,17.6
2019-04-23T10:28:27.388Z,17.3
2019-04-23T10:29:38.209Z,17.4
2019-04-23T10:30:46.863Z,17.6
2019-04-23T10:31:57.577Z,16.8
2019-04-23T10:33:07.393Z,17.4
2019-04-23T10:34:16.999Z,17.3
2019-04-23T10:35:34.940Z,17
2019-04-23T10:36:36.578Z,16.9
2019-04-23T10:37:56.375Z,16.9
2019-04-23T10:39:03.390Z,17.1
2019-04-23T10:40:15.303Z,17.5
2019-04-23T10:41:20.164Z,17.6
2019-04-23T11:07:30.394Z,18.4
2019-04-23T11:11:07.379Z,18.2
2019-04-23T11:14:30.535Z,18
2019-04-23T11:16:56.458Z,18.5
2019-04-23T11:19:14.044Z,18.5
2019-04-23T11:21:20.240Z,18
2019-04-23T11:24:57.717Z,17.8
2019-04-23T11:26:13.723Z,17.8
2019-04-23T11:27:41.850Z,18.6
2019-04-23T11:29:38.431Z,18
2019-04-23T11:32:04.212Z,18.6
2019-04-23T11:34:33.463Z,17.8
2019-04-23T11:38:05.726Z,18.6
2019-04-23T11:40:07.007Z,18.3
2019-04-23T11:42:25.891Z,18.5
2019-04-23T11:44:45.556Z,18.7
2019-04-23T11:47:11.312Z,18.6
2019-04-23T11:51:04.290Z,18.6
2019-04-23T11:52:53.157Z,18.3
2019-04-23T11:53:54.090Z,18.3
2019-04-23T11:55:38.719Z,18.2
2019-04-23T11:59:52.478Z,18.7
2019-04-23T12:01:08.125Z,18.8
2019-04-23T12:01:55.110Z,18.9
2019-04-23T12:03:26.286Z,18.9
2019-04-23T12:05:31.357Z,18.9
2019-04-23T12:08:05.955Z,18.4
2019-04-23T12:12:27.847Z,18.8
2019-04-23T12:13:50.983Z,18.9
2019-04-23T12:15:58.580Z,18.9
2019-04-23T12:17:24.505Z,19.8
2019-04-23T12:19:43.775Z,18.5
2019-04-23T12:23:03.777Z,19.3
2019-04-23T12:24:13.524Z,18.8
2019-04-23T12:26:42.176Z,19.1
2019-04-23T12:27:32.975Z,18.5
2019-04-23T12:30:07.634Z,18.7
2019-04-23T12:33:27.848Z,18.7
2019-04-23T12:34:52.155Z,19.1
2019-04-23T12:36:50.288Z,18.8
2019-04-23T12:38:29.713Z,18.8
2019-04-23T12:40:30.642Z,18.9
2019-04-23T12:42:16.591Z,18.5
2019-04-23T12:45:20.393Z,19.2
2019-04-23T12:48:46.324Z,18.6
2019-04-23T12:51:05.418Z,18.7
2019-04-23T12:55:39.848Z,18.4
2019-04-23T12:59:03.889Z,18.9
2019-04-23T13:01:32.212Z,18.8
2019-04-23T13:03:39.005Z,18.5
2019-04-23T13:06:07.893Z,18.6
2019-04-23T13:08:37.859Z,18.8
2019-04-23T13:10:45.098Z,18.2
2019-04-23T13:11:56.567Z,18.5
2019-04-23T13:14:24.950Z,18.4
2019-04-23T13:16:43.195Z,18.5
2019-04-23T13:20:05.475Z,18.1
2019-04-23T13:22:30.304Z,18.3
2019-04-23T13:24:48.305Z,18.3
2019-04-23T13:27:08.158Z,18.6
2019-04-23T13:29:26.835Z,18.4
2019-04-23T13:31:39.282Z,18.2
2019-04-23T13:32:45.892Z,18.3
2019-04-23T13:35:27.387Z,18
2019-04-23T13:37:35.227Z,18.6
2019-04-23T13:38:39.915Z,18.6
2019-04-23T13:40:55.303Z,18.4
2019-04-23T13:43:29.321Z,18.5
2019-04-23T13:44:30.916Z,18.4
2019-04-23T13:46:19.539Z,18.2
2019-04-23T13:47:52.695Z,18
2019-04-23T13:49:07.158Z,18.4
2019-04-23T13:50:29.265Z,18.3
2019-04-23T13:53:07.015Z,18.4
2019-04-23T13:55:51.961Z,18.4
2019-04-23T13:57:39.569Z,17.9
2019-04-23T14:01:28.616Z,18.2
2019-04-23T14:03:01.083Z,18.2
2019-04-23T14:04:20.621Z,18.5
2019-04-23T14:07:47.728Z,18
2019-04-23T14:10:09.822Z,17.8
2019-04-23T14:11:44.755Z,17.8
2019-04-23T14:14:47.382Z,17.9
2019-04-23T14:18:24.450Z,17.7
2019-04-23T14:20:20.940Z,17.9
2019-04-23T14:22:58.024Z,17.9
2019-04-23T14:26:23.039Z,17.7
2019-04-23T14:30:58.702Z,17.8
2019-04-23T14:32:08.356Z,17.6
2019-04-23T14:33:59.930Z,17.5
2019-04-23T14:36:34.820Z,17.6
2019-04-23T14:39:05.510Z,17.5
2019-04-23T14:41:22.624Z,17.6
2019-04-23T14:43:48.464Z,17.4
2019-04-23T14:46:04.574Z,17.4
2019-04-23T14:48:03.776Z,17.4
2019-04-23T14:50:37.948Z,17.4
2019-04-23T14:53:05.746Z,17.3
2019-04-23T14:55:39.932Z,17.3
2019-04-23T14:57:37.850Z,17.3
2019-04-23T15:00:01.454Z,17.1
2019-04-23T15:02:19.293Z,17
2019-04-23T15:06:50.483Z,17
2019-04-23T15:09:20.762Z,17
2019-04-23T15:11:20.167Z,16.9
2019-04-23T15:13:49.242Z,16.9
2019-04-23T15:16:15.136Z,16.8
2019-04-23T15:18:34.372Z,16.9
2019-04-23T15:21:04.640Z,16.9
2019-04-23T15:24:18.803Z,16.9
2019-04-23T15:25:31.507Z,16.8
2019-04-23T15:28:04.396Z,16.6
2019-04-23T15:28:37.160Z,16.6
2019-04-23T15:29:57.626Z,16.7
2019-04-23T15:31:08.997Z,16.6
2019-04-23T15:32:23.656Z,16.7
2019-04-23T15:34:46.815Z,16.6
2019-04-23T15:37:13.218Z,16.7
2019-04-23T15:41:46.147Z,16.7
2019-04-23T15:42:55.466Z,16.6
2019-04-23T15:45:07.596Z,16.7
2019-04-23T15:46:25.040Z,16.7
2019-04-23T15:47:31.053Z,16.8
2019-04-23T15:49:51.170Z,16.6
2019-04-23T15:53:10.882Z,16.5
2019-04-23T15:55:42.101Z,16.5
2019-04-23T15:56:48.770Z,16.5
2019-04-23T16:00:12.649Z,16.5
2019-04-23T16:01:38.341Z,16.4
2019-04-23T16:02:07.465Z,16.5
2019-04-23T16:03:18.070Z,16.5
2019-04-23T16:04:27.562Z,16.5
2019-04-23T16:05:37.177Z,16.5
2019-04-23T16:06:45.721Z,16.5
2019-04-23T16:09:20.208Z,16.5
2019-04-23T16:11:42.672Z,16.5
2019-04-23T16:18:49.338Z,16.4
2019-04-23T16:22:03.504Z,16.5
2019-04-23T16:23:26.138Z,16.5
2019-04-23T16:25:41.855Z,16.5
2019-04-23T16:26:46.740Z,16.5
2019-04-23T16:30:13.702Z,16.5
2019-04-23T16:32:51.175Z,16.5
2019-04-23T16:35:11.794Z,16.5
2019-04-23T16:36:10.584Z,16.5
2019-04-23T16:39:36.858Z,16.5
2019-04-23T16:42:01.653Z,16.4
2019-04-23T16:45:22.707Z,16.5
2019-04-23T16:47:45.097Z,16.4
2019-04-23T16:49:06.527Z,16.4
2019-04-23T16:51:27.252Z,16.4
2019-04-23T16:55:46.286Z,16.3
2019-04-23T16:58:20.235Z,16.3
2019-04-23T16:59:13.364Z,16.3
2019-04-23T17:00:37.388Z,16.2
2019-04-23T17:02:24.017Z,16.1
2019-04-23T17:04:02.922Z,16
2019-04-23T17:05:49.221Z,16
2019-04-23T17:07:23.819Z,16
2019-04-23T17:09:41.825Z,15.9
2019-04-23T17:11:07.528Z,15.9
2019-04-23T17:13:18.249Z,15.8
2019-04-23T17:15:43.124Z,15.8
2019-04-23T17:17:11.503Z,15.8
2019-04-23T17:19:10.223Z,15.8
2019-04-23T17:20:07.990Z,15.8
2019-04-23T17:21:35.498Z,15.8
2019-04-23T17:24:59.059Z,15.7
2019-04-23T17:27:16.295Z,15.7
2019-04-23T17:28:21.340Z,15.7
2019-04-23T17:30:38.920Z,15.7
2019-04-23T17:33:05.563Z,15.7
2019-04-23T17:35:23.725Z,15.7
2019-04-23T17:37:36.376Z,15.7
2019-04-23T17:38:40.998Z,15.7
2019-04-23T17:40:08.261Z,15.7
2019-04-23T17:41:11.099Z,15.8
2019-04-23T17:42:19.300Z,15.7
2019-04-23T17:44:09.289Z,15.7
2019-04-23T17:47:57.049Z,15.7
2019-04-23T17:49:33.122Z,15.7
2019-04-23T17:50:26.342Z,15.7
2019-04-23T17:51:29.500Z,15.7
2019-04-23T17:53:54.228Z,15.7
2019-04-23T17:54:54.577Z,15.7
2019-04-23T17:56:16.280Z,15.7
2019-04-23T17:59:49.836Z,15.7
2019-04-23T18:02:26.832Z,15.8
2019-04-23T18:05:23.363Z,15.8
2019-04-23T18:06:55.657Z,15.8
2019-04-23T18:13:27.504Z,15.9
2019-04-23T18:17:04.923Z,15.9
2019-04-23T18:19:12.194Z,15.8
2019-04-23T18:20:28.059Z,15.9
2019-04-23T18:22:52.293Z,15.9
2019-04-23T18:26:20.565Z,15.9
2019-04-23T18:27:18.891Z,15.9
2019-04-23T18:28:44.138Z,15.9
2019-04-23T18:31:05.717Z,15.9
2019-04-23T18:33:47.651Z,16
2019-04-23T18:35:33.632Z,16
2019-04-23T18:37:54.942Z,16
2019-04-23T18:39:43.525Z,16
2019-04-23T18:42:40.142Z,16
2019-04-23T18:43:32.533Z,16
2019-04-23T18:44:55.618Z,16
2019-04-23T18:47:12.321Z,16.1
2019-04-23T18:49:34.440Z,16
2019-04-23T18:51:49.333Z,16.1
2019-04-23T18:53:52.412Z,16.1
2019-04-23T18:56:14.716Z,16.1
2019-04-23T18:57:50.191Z,16.2
2019-04-23T18:58:54.227Z,16.2
2019-04-23T18:59:56.868Z,16.2
2019-04-23T19:02:22.715Z,16.2
2019-04-23T19:03:18.981Z,16.2
2019-04-23T19:04:52.287Z,16.3
2019-04-23T19:06:37.523Z,16.3
2019-04-23T19:08:16.549Z,16.3
2019-04-23T19:10:30.325Z,16.3
2019-04-23T19:11:43.699Z,16.4
2019-04-23T19:15:03.113Z,16.4
2019-04-23T19:17:41.093Z,16.3
2019-04-23T19:19:47.815Z,16.5
2019-04-23T19:22:02.688Z,16.5
2019-04-23T19:24:19.948Z,16.6
2019-04-23T19:28:55.271Z,16.6
2019-04-23T19:31:12.984Z,16.7
2019-04-23T19:34:42.116Z,16.7
2019-04-23T19:37:00.900Z,16.7
2019-04-23T19:38:30.943Z,16.7
2019-04-23T19:39:23.980Z,16.8
2019-04-23T19:40:37.335Z,16.7
2019-04-23T19:42:08.716Z,16.7
2019-04-23T19:44:01.006Z,16.7
2019-04-23T19:45:49.160Z,16.7
2019-04-23T19:48:30.098Z,16.7
2019-04-23T19:51:02.492Z,16.7
2019-04-23T19:52:02.444Z,16.7
2019-04-23T19:54:33.563Z,16.6
2019-04-23T19:56:49.408Z,16.7
2019-04-23T19:58:44.718Z,16.7
2019-04-23T20:02:47.669Z,16.6
2019-04-23T20:07:18.090Z,16.6
2019-04-23T20:08:33.726Z,16.6
2019-04-23T20:10:10.173Z,16.6
2019-04-23T20:14:08.094Z,16.5
2019-04-23T20:15:06.020Z,16.5
2019-04-23T20:16:37.950Z,16.5
2019-04-23T20:18:50.323Z,16.5
2019-04-23T20:19:54.282Z,16.5
2019-04-23T20:23:42.741Z,16.4
2019-04-23T20:26:59.040Z,16.4
2019-04-23T20:28:14.532Z,16.4
2019-04-23T20:30:53.771Z,16.4
2019-04-23T20:34:52.880Z,16.3
2019-04-23T20:38:39.035Z,16.3
2019-04-23T20:40:53.435Z,16.2
2019-04-23T20:42:02.115Z,16.2
2019-04-23T20:44:19.789Z,16.2
2019-04-23T20:46:42.240Z,16.1
2019-04-23T20:48:30.419Z,16.1
2019-04-23T20:51:03.696Z,16.1
2019-04-23T20:53:39.841Z,16.1
2019-04-23T20:55:59.770Z,16
2019-04-23T20:57:09.822Z,16.1
2019-04-23T20:59:19.888Z,16
2019-04-23T21:01:46.171Z,15.9
2019-04-23T21:03:00.102Z,15.9
2019-04-23T21:05:02.824Z,15.9
2019-04-23T21:07:40.205Z,15.9
2019-04-23T21:09:35.709Z,15.8
2019-04-23T21:12:14.049Z,15.8
2019-04-23T21:14:26.070Z,15.7
2019-04-23T21:15:38.672Z,15.8
2019-04-23T21:16:47.937Z,15.8
2019-04-23T21:18:04.927Z,15.7
2019-04-23T21:21:24.071Z,15.7
2019-04-23T21:23:37.236Z,15.7
2019-04-23T21:25:47.338Z,15.6
2019-04-23T21:27:25.077Z,15.6
2019-04-23T21:29:37.267Z,15.6
2019-04-23T21:33:04.713Z,15.6
2019-04-23T21:34:23.235Z,15.6
2019-04-23T21:35:25.254Z,15.5
2019-04-23T21:36:24.474Z,15.5
2019-04-23T21:38:08.982Z,15.5
2019-04-23T21:41:13.495Z,15.5
2019-04-23T21:43:15.319Z,15.5
2019-04-23T21:44:45.244Z,15.4
2019-04-23T21:48:08.130Z,15.4
2019-04-23T21:50:24.537Z,15.3
2019-04-23T21:53:51.512Z,15.3
2019-04-23T21:57:21.656Z,15.3
2019-04-23T21:58:32.458Z,15.3
2019-04-23T22:00:05.727Z,15.2
2019-04-23T22:01:52.831Z,15.2
2019-04-23T22:03:27.119Z,15.2
2019-04-23T22:06:42.500Z,15.2
2019-04-23T22:08:52.254Z,15.1
2019-04-23T22:09:57.089Z,15.1
2019-04-23T22:12:20.970Z,15.1
2019-04-23T22:13:57.654Z,15.1
2019-04-23T22:15:52.922Z,15.1
2019-04-23T22:19:18.381Z,15
2019-04-23T22:21:39.591Z,15
2019-04-23T22:24:02.297Z,14.9
2019-04-23T22:26:13.030Z,14.8
2019-04-23T22:27:22.411Z,14.8
2019-04-23T22:31:03.518Z,14.7
2019-04-23T22:33:17.601Z,14.7
2019-04-23T22:35:28.668Z,14.7
2019-04-23T22:36:48.054Z,14.7
2019-04-23T22:39:02.895Z,14.7
2019-04-23T22:42:52.040Z,14.7
2019-04-23T22:47:05.730Z,14.6
2019-04-23T22:48:31.450Z,14.6
2019-04-23T22:49:37.190Z,14.6
2019-04-23T22:51:20.440Z,14.6
2019-04-23T22:55:12.454Z,14.5
2019-04-23T22:57:47.228Z,14.5
2019-04-23T22:59:53.739Z,14.5
2019-04-23T23:02:06.963Z,14.4
2019-04-23T23:03:21.004Z,14.5
2019-04-23T23:05:55.763Z,14.5
2019-04-23T23:09:09.965Z,14.4
2019-04-23T23:11:32.277Z,14.5
2019-04-23T23:13:18.164Z,14.4
2019-04-23T23:15:07.807Z,14.4
2019-04-23T23:16:26.015Z,14.4
2019-04-23T23:17:20.129Z,14.4
2019-04-23T23:20:52.267Z,14.4
2019-04-23T23:22:01.464Z,14.3
2019-04-23T23:24:13.471Z,14.3
2019-04-23T23:26:29.544Z,14.3
2019-04-23T23:28:39.258Z,14.2
2019-04-23T23:30:08.399Z,14.2
2019-04-23T23:33:28.604Z,14.2
2019-04-23T23:35:52.858Z,14.2
2019-04-23T23:37:25.907Z,14.2
2019-04-23T23:39:21.936Z,14.2
2019-04-23T23:40:45.860Z,14.2
2019-04-23T23:42:40.383Z,14.2
2019-04-23T23:44:19.211Z,14.2
2019-04-23T23:47:14.435Z,14.1
2019-04-23T23:48:33.594Z,14.1
2019-04-23T23:50:24.745Z,14.2
2019-04-23T23:51:56.932Z,14.2
2019-04-23T23:53:21.491Z,14.1
2019-04-23T23:56:49.586Z,14.1
2019-04-23T23:58:49.951Z,14.2
